sensor_id;sensor_type;location;lat;lon;timestamp;temperature;humidity
24146;DHT22;12308;50.948;4.706;2023-12-20T00:00:54;7.30;99.90
24146;DHT22;12308;50.948;4.706;2023-12-20T00:03:20;7.30;99.90
24146;DHT22;12308;50.948;4.706;2023-12-20T00:05:46;7.30;99.90
24146;DHT22;12308;50.948;4.706;2023-12-20T00:08:12;7.30;99.90
24146;DHT22;12308;50.948;4.706;2023-12-20T00:10:38;7.30;99.90
24146;DHT22;12308;50.948;4.706;2023-12-20T00:13:03;7.30;99.90
24146;DHT22;12308;50.948;4.706;2023-12-20T00:15:29;7.30;99.90
24146;DHT22;12308;50.948;4.706;2023-12-20T00:17:55;7.40;99.90
24146;DHT22;12308;50.948;4.706;2023-12-20T00:20:20;7.40;99.90
24146;DHT22;12308;50.948;4.706;2023-12-20T00:22:46;7.40;99.90
24146;DHT22;12308;50.948;4.706;2023-12-20T00:25:12;7.50;99.90
24146;DHT22;12308;50.948;4.706;2023-12-20T00:27:38;7.70;99.90
24146;DHT22;12308;50.948;4.706;2023-12-20T00:30:04;7.70;99.90
24146;DHT22;12308;50.948;4.706;2023-12-20T00:32:29;7.60;99.90
24146;DHT22;12308;50.948;4.706;2023-12-20T00:34:55;7.70;99.90
24146;DHT22;12308;50.948;4.706;2023-12-20T00:37:21;7.70;99.90
24146;DHT22;12308;50.948;4.706;2023-12-20T00:39:47;7.60;99.90
24146;DHT22;12308;50.948;4.706;2023-12-20T00:42:13;7.50;99.90
24146;DHT22;12308;50.948;4.706;2023-12-20T00:44:38;7.30;99.90
24146;DHT22;12308;50.948;4.706;2023-12-20T00:47:04;7.20;99.90
24146;DHT22;12308;50.948;4.706;2023-12-20T00:49:30;7.10;99.90
24146;DHT22;12308;50.948;4.706;2023-12-20T00:51:55;7.10;99.90
24146;DHT22;12308;50.948;4.706;2023-12-20T00:54:21;7.10;99.90
24146;DHT22;12308;50.948;4.706;2023-12-20T00:56:47;7.00;99.90
24146;DHT22;12308;50.948;4.706;2023-12-20T00:59:13;7.10;99.90
24146;DHT22;12308;50.948;4.706;2023-12-20T01:01:38;7.00;99.90
24146;DHT22;12308;50.948;4.706;2023-12-20T01:04:04;6.90;99.90
24146;DHT22;12308;50.948;4.706;2023-12-20T01:06:30;6.90;99.90
24146;DHT22;12308;50.948;4.706;2023-12-20T01:08:56;7.00;99.90
24146;DHT22;12308;50.948;4.706;2023-12-20T01:11:21;7.00;99.90
24146;DHT22;12308;50.948;4.706;2023-12-20T01:13:47;7.10;99.90
24146;DHT22;12308;50.948;4.706;2023-12-20T01:16:13;7.00;99.90
24146;DHT22;12308;50.948;4.706;2023-12-20T01:18:38;7.10;99.90
24146;DHT22;12308;50.948;4.706;2023-12-20T01:21:04;7.20;99.90
24146;DHT22;12308;50.948;4.706;2023-12-20T01:23:31;7.00;99.90
24146;DHT22;12308;50.948;4.706;2023-12-20T01:25:57;7.00;99.90
24146;DHT22;12308;50.948;4.706;2023-12-20T01:28:25;6.80;99.90
24146;DHT22;12308;50.948;4.706;2023-12-20T01:30:51;7.00;99.90
24146;DHT22;12308;50.948;4.706;2023-12-20T01:33:16;7.00;99.90
24146;DHT22;12308;50.948;4.706;2023-12-20T01:35:42;7.00;99.90
24146;DHT22;12308;50.948;4.706;2023-12-20T01:38:08;6.80;99.90
24146;DHT22;12308;50.948;4.706;2023-12-20T01:40:34;6.70;99.90
24146;DHT22;12308;50.948;4.706;2023-12-20T01:43:01;6.70;99.90
24146;DHT22;12308;50.948;4.706;2023-12-20T01:45:27;6.80;99.90
24146;DHT22;12308;50.948;4.706;2023-12-20T01:47:57;6.80;99.90
24146;DHT22;12308;50.948;4.706;2023-12-20T01:50:24;6.90;99.90
24146;DHT22;12308;50.948;4.706;2023-12-20T01:52:50;6.90;99.90
24146;DHT22;12308;50.948;4.706;2023-12-20T01:55:19;6.80;99.90
24146;DHT22;12308;50.948;4.706;2023-12-20T01:57:45;6.80;99.90
24146;DHT22;12308;50.948;4.706;2023-12-20T02:00:13;6.70;99.90
24146;DHT22;12308;50.948;4.706;2023-12-20T02:02:40;6.70;99.90
24146;DHT22;12308;50.948;4.706;2023-12-20T02:05:07;6.60;99.90
24146;DHT22;12308;50.948;4.706;2023-12-20T02:07:32;6.60;99.90
24146;DHT22;12308;50.948;4.706;2023-12-20T02:10:01;6.60;99.90
24146;DHT22;12308;50.948;4.706;2023-12-20T02:12:27;6.60;99.90
24146;DHT22;12308;50.948;4.706;2023-12-20T02:14:53;6.60;99.90
24146;DHT22;12308;50.948;4.706;2023-12-20T02:17:20;6.60;99.90
24146;DHT22;12308;50.948;4.706;2023-12-20T02:19:46;6.70;99.90
24146;DHT22;12308;50.948;4.706;2023-12-20T02:22:11;6.70;99.90
24146;DHT22;12308;50.948;4.706;2023-12-20T02:24:38;6.70;99.90
24146;DHT22;12308;50.948;4.706;2023-12-20T02:27:06;6.70;99.90
24146;DHT22;12308;50.948;4.706;2023-12-20T02:29:35;6.70;99.90
24146;DHT22;12308;50.948;4.706;2023-12-20T02:32:01;6.80;99.90
24146;DHT22;12308;50.948;4.706;2023-12-20T02:34:27;6.80;99.90
24146;DHT22;12308;50.948;4.706;2023-12-20T02:36:53;6.80;99.90
24146;DHT22;12308;50.948;4.706;2023-12-20T02:39:19;6.80;99.90
24146;DHT22;12308;50.948;4.706;2023-12-20T02:41:45;6.70;99.90
24146;DHT22;12308;50.948;4.706;2023-12-20T02:44:10;6.80;99.90
24146;DHT22;12308;50.948;4.706;2023-12-20T02:46:36;7.00;99.90
24146;DHT22;12308;50.948;4.706;2023-12-20T02:49:02;7.10;99.90
24146;DHT22;12308;50.948;4.706;2023-12-20T02:51:27;7.00;99.90
24146;DHT22;12308;50.948;4.706;2023-12-20T02:53:53;7.10;99.90
24146;DHT22;12308;50.948;4.706;2023-12-20T02:56:19;7.10;99.90
24146;DHT22;12308;50.948;4.706;2023-12-20T02:58:44;7.20;99.90
24146;DHT22;12308;50.948;4.706;2023-12-20T03:01:10;7.20;99.90
24146;DHT22;12308;50.948;4.706;2023-12-20T03:03:36;7.10;99.90
24146;DHT22;12308;50.948;4.706;2023-12-20T03:06:01;7.10;99.90
24146;DHT22;12308;50.948;4.706;2023-12-20T03:08:27;7.00;99.90
24146;DHT22;12308;50.948;4.706;2023-12-20T03:10:53;7.00;99.90
24146;DHT22;12308;50.948;4.706;2023-12-20T03:13:19;7.10;99.90
24146;DHT22;12308;50.948;4.706;2023-12-20T03:15:45;7.10;99.90
24146;DHT22;12308;50.948;4.706;2023-12-20T03:18:11;7.00;99.90
24146;DHT22;12308;50.948;4.706;2023-12-20T03:20:37;7.00;99.90
24146;DHT22;12308;50.948;4.706;2023-12-20T03:23:03;7.00;99.90
24146;DHT22;12308;50.948;4.706;2023-12-20T03:25:29;7.00;99.90
24146;DHT22;12308;50.948;4.706;2023-12-20T03:27:55;7.00;99.90
24146;DHT22;12308;50.948;4.706;2023-12-20T03:30:21;7.10;99.90
24146;DHT22;12308;50.948;4.706;2023-12-20T03:32:47;7.10;99.90
24146;DHT22;12308;50.948;4.706;2023-12-20T03:35:12;7.20;99.90
24146;DHT22;12308;50.948;4.706;2023-12-20T03:37:38;7.20;99.90
24146;DHT22;12308;50.948;4.706;2023-12-20T03:40:05;7.20;99.90
24146;DHT22;12308;50.948;4.706;2023-12-20T03:42:30;7.20;99.90
24146;DHT22;12308;50.948;4.706;2023-12-20T03:44:56;7.20;99.90
24146;DHT22;12308;50.948;4.706;2023-12-20T03:47:22;7.30;99.90
24146;DHT22;12308;50.948;4.706;2023-12-20T03:49:48;7.30;99.90
24146;DHT22;12308;50.948;4.706;2023-12-20T03:52:13;7.30;99.90
24146;DHT22;12308;50.948;4.706;2023-12-20T03:54:40;7.30;99.90
24146;DHT22;12308;50.948;4.706;2023-12-20T03:57:08;7.30;99.90
24146;DHT22;12308;50.948;4.706;2023-12-20T03:59:37;7.20;99.90
24146;DHT22;12308;50.948;4.706;2023-12-20T04:02:03;7.20;99.90
24146;DHT22;12308;50.948;4.706;2023-12-20T04:04:29;7.20;99.90
24146;DHT22;12308;50.948;4.706;2023-12-20T04:06:55;7.30;99.90
24146;DHT22;12308;50.948;4.706;2023-12-20T04:09:21;7.30;99.90
24146;DHT22;12308;50.948;4.706;2023-12-20T04:11:46;7.40;99.90
24146;DHT22;12308;50.948;4.706;2023-12-20T04:14:12;7.40;99.90
24146;DHT22;12308;50.948;4.706;2023-12-20T04:16:38;7.30;99.90
24146;DHT22;12308;50.948;4.706;2023-12-20T04:19:05;7.20;99.90
24146;DHT22;12308;50.948;4.706;2023-12-20T04:21:31;7.30;99.90
24146;DHT22;12308;50.948;4.706;2023-12-20T04:23:56;7.20;99.90
24146;DHT22;12308;50.948;4.706;2023-12-20T04:26:22;7.10;99.90
24146;DHT22;12308;50.948;4.706;2023-12-20T04:28:48;7.10;99.90
24146;DHT22;12308;50.948;4.706;2023-12-20T04:31:13;7.10;99.90
24146;DHT22;12308;50.948;4.706;2023-12-20T04:33:39;7.10;99.90
24146;DHT22;12308;50.948;4.706;2023-12-20T04:36:05;7.10;99.90
24146;DHT22;12308;50.948;4.706;2023-12-20T04:38:31;7.10;99.90
24146;DHT22;12308;50.948;4.706;2023-12-20T04:40:57;7.00;99.90
24146;DHT22;12308;50.948;4.706;2023-12-20T04:43:22;7.10;99.90
24146;DHT22;12308;50.948;4.706;2023-12-20T04:45:48;7.10;99.90
24146;DHT22;12308;50.948;4.706;2023-12-20T04:48:14;7.10;99.90
24146;DHT22;12308;50.948;4.706;2023-12-20T04:50:39;7.00;99.90
24146;DHT22;12308;50.948;4.706;2023-12-20T04:53:05;7.00;99.90
24146;DHT22;12308;50.948;4.706;2023-12-20T04:55:31;7.00;99.90
24146;DHT22;12308;50.948;4.706;2023-12-20T04:57:56;7.00;99.90
24146;DHT22;12308;50.948;4.706;2023-12-20T05:00:22;6.90;99.90
24146;DHT22;12308;50.948;4.706;2023-12-20T05:02:48;6.80;99.90
24146;DHT22;12308;50.948;4.706;2023-12-20T05:05:14;6.90;99.90
24146;DHT22;12308;50.948;4.706;2023-12-20T05:07:41;7.00;99.90
24146;DHT22;12308;50.948;4.706;2023-12-20T05:10:07;7.00;99.90
24146;DHT22;12308;50.948;4.706;2023-12-20T05:12:34;7.00;99.90
24146;DHT22;12308;50.948;4.706;2023-12-20T05:15:00;7.00;99.90
24146;DHT22;12308;50.948;4.706;2023-12-20T05:17:26;7.10;99.90
24146;DHT22;12308;50.948;4.706;2023-12-20T05:19:52;7.10;99.90
24146;DHT22;12308;50.948;4.706;2023-12-20T05:22:21;7.00;99.90
24146;DHT22;12308;50.948;4.706;2023-12-20T05:24:47;7.00;99.90
24146;DHT22;12308;50.948;4.706;2023-12-20T05:27:12;7.00;99.90
24146;DHT22;12308;50.948;4.706;2023-12-20T05:29:38;6.90;99.90
24146;DHT22;12308;50.948;4.706;2023-12-20T05:32:04;6.80;99.90
24146;DHT22;12308;50.948;4.706;2023-12-20T05:34:30;6.80;99.90
24146;DHT22;12308;50.948;4.706;2023-12-20T05:36:57;6.80;99.90
24146;DHT22;12308;50.948;4.706;2023-12-20T05:39:22;6.80;99.90
24146;DHT22;12308;50.948;4.706;2023-12-20T05:41:48;6.80;99.90
24146;DHT22;12308;50.948;4.706;2023-12-20T05:44:14;6.90;99.90
24146;DHT22;12308;50.948;4.706;2023-12-20T05:46:40;7.00;99.90
24146;DHT22;12308;50.948;4.706;2023-12-20T05:49:06;7.00;99.90
24146;DHT22;12308;50.948;4.706;2023-12-20T05:51:32;6.90;99.90
24146;DHT22;12308;50.948;4.706;2023-12-20T05:53:58;6.90;99.90
24146;DHT22;12308;50.948;4.706;2023-12-20T05:56:24;6.90;99.90
24146;DHT22;12308;50.948;4.706;2023-12-20T05:58:50;6.90;99.90
24146;DHT22;12308;50.948;4.706;2023-12-20T06:01:15;6.90;99.90
24146;DHT22;12308;50.948;4.706;2023-12-20T06:03:44;6.80;99.90
24146;DHT22;12308;50.948;4.706;2023-12-20T06:06:11;6.90;99.90
24146;DHT22;12308;50.948;4.706;2023-12-20T06:08:38;6.80;99.90
24146;DHT22;12308;50.948;4.706;2023-12-20T06:11:04;6.80;99.90
24146;DHT22;12308;50.948;4.706;2023-12-20T06:13:31;6.90;99.90
24146;DHT22;12308;50.948;4.706;2023-12-20T06:15:56;7.00;99.90
24146;DHT22;12308;50.948;4.706;2023-12-20T06:18:22;7.10;99.90
24146;DHT22;12308;50.948;4.706;2023-12-20T06:20:48;7.10;99.90
24146;DHT22;12308;50.948;4.706;2023-12-20T06:23:14;7.10;99.90
24146;DHT22;12308;50.948;4.706;2023-12-20T06:25:40;7.10;99.90
24146;DHT22;12308;50.948;4.706;2023-12-20T06:28:06;7.10;99.90
24146;DHT22;12308;50.948;4.706;2023-12-20T06:30:32;7.20;99.90
24146;DHT22;12308;50.948;4.706;2023-12-20T06:32:58;7.10;99.90
24146;DHT22;12308;50.948;4.706;2023-12-20T06:35:24;7.10;99.90
24146;DHT22;12308;50.948;4.706;2023-12-20T06:37:50;7.00;99.90
24146;DHT22;12308;50.948;4.706;2023-12-20T06:40:16;6.90;99.90
24146;DHT22;12308;50.948;4.706;2023-12-20T06:42:42;7.00;99.90
24146;DHT22;12308;50.948;4.706;2023-12-20T06:45:08;7.00;99.90
24146;DHT22;12308;50.948;4.706;2023-12-20T06:47:34;6.80;99.90
24146;DHT22;12308;50.948;4.706;2023-12-20T06:50:00;6.70;99.90
24146;DHT22;12308;50.948;4.706;2023-12-20T06:52:26;6.70;99.90
24146;DHT22;12308;50.948;4.706;2023-12-20T06:54:52;6.70;99.90
24146;DHT22;12308;50.948;4.706;2023-12-20T06:57:18;6.80;99.90
24146;DHT22;12308;50.948;4.706;2023-12-20T06:59:45;6.80;99.90
24146;DHT22;12308;50.948;4.706;2023-12-20T07:02:11;6.80;99.90
24146;DHT22;12308;50.948;4.706;2023-12-20T07:04:41;6.70;99.90
24146;DHT22;12308;50.948;4.706;2023-12-20T07:07:06;6.70;99.90
24146;DHT22;12308;50.948;4.706;2023-12-20T07:09:33;6.80;99.90
24146;DHT22;12308;50.948;4.706;2023-12-20T07:11:59;6.70;99.90
24146;DHT22;12308;50.948;4.706;2023-12-20T07:14:25;6.60;99.90
24146;DHT22;12308;50.948;4.706;2023-12-20T07:16:50;6.60;99.90
24146;DHT22;12308;50.948;4.706;2023-12-20T07:19:16;6.70;99.90
24146;DHT22;12308;50.948;4.706;2023-12-20T07:21:42;6.60;99.90
24146;DHT22;12308;50.948;4.706;2023-12-20T07:24:07;6.70;99.90
24146;DHT22;12308;50.948;4.706;2023-12-20T07:26:33;6.70;99.90
24146;DHT22;12308;50.948;4.706;2023-12-20T07:29:00;6.60;99.90
24146;DHT22;12308;50.948;4.706;2023-12-20T07:31:25;6.70;99.90
24146;DHT22;12308;50.948;4.706;2023-12-20T07:33:51;6.70;99.90
24146;DHT22;12308;50.948;4.706;2023-12-20T07:36:17;6.60;99.90
24146;DHT22;12308;50.948;4.706;2023-12-20T07:38:42;6.50;99.90
24146;DHT22;12308;50.948;4.706;2023-12-20T07:41:12;6.50;99.90
24146;DHT22;12308;50.948;4.706;2023-12-20T07:43:38;6.50;99.90
24146;DHT22;12308;50.948;4.706;2023-12-20T07:46:06;6.40;99.90
24146;DHT22;12308;50.948;4.706;2023-12-20T07:48:32;6.50;99.90
24146;DHT22;12308;50.948;4.706;2023-12-20T07:50:58;6.50;99.90
24146;DHT22;12308;50.948;4.706;2023-12-20T07:53:24;6.40;99.90
24146;DHT22;12308;50.948;4.706;2023-12-20T07:55:49;6.40;99.90
24146;DHT22;12308;50.948;4.706;2023-12-20T07:58:15;6.40;99.90
24146;DHT22;12308;50.948;4.706;2023-12-20T08:00:40;6.40;99.90
24146;DHT22;12308;50.948;4.706;2023-12-20T08:03:06;6.40;99.90
24146;DHT22;12308;50.948;4.706;2023-12-20T08:05:32;6.40;99.90
24146;DHT22;12308;50.948;4.706;2023-12-20T08:07:58;6.40;99.90
24146;DHT22;12308;50.948;4.706;2023-12-20T08:10:24;6.30;99.90
24146;DHT22;12308;50.948;4.706;2023-12-20T08:12:49;6.40;99.90
24146;DHT22;12308;50.948;4.706;2023-12-20T08:15:15;6.40;99.90
24146;DHT22;12308;50.948;4.706;2023-12-20T08:17:41;6.40;99.90
24146;DHT22;12308;50.948;4.706;2023-12-20T08:20:07;6.40;99.90
24146;DHT22;12308;50.948;4.706;2023-12-20T08:22:32;6.40;99.90
24146;DHT22;12308;50.948;4.706;2023-12-20T08:24:58;6.40;99.90
24146;DHT22;12308;50.948;4.706;2023-12-20T08:27:24;6.40;99.90
24146;DHT22;12308;50.948;4.706;2023-12-20T08:29:51;6.40;99.90
24146;DHT22;12308;50.948;4.706;2023-12-20T08:32:16;6.60;99.90
24146;DHT22;12308;50.948;4.706;2023-12-20T08:34:42;6.50;99.90
24146;DHT22;12308;50.948;4.706;2023-12-20T08:37:08;6.60;99.90
24146;DHT22;12308;50.948;4.706;2023-12-20T08:39:33;6.70;99.90
24146;DHT22;12308;50.948;4.706;2023-12-20T08:41:59;6.90;99.90
24146;DHT22;12308;50.948;4.706;2023-12-20T08:44:25;7.00;99.90
24146;DHT22;12308;50.948;4.706;2023-12-20T08:46:50;7.00;99.90
24146;DHT22;12308;50.948;4.706;2023-12-20T08:49:17;7.00;99.90
24146;DHT22;12308;50.948;4.706;2023-12-20T08:51:42;7.10;99.90
24146;DHT22;12308;50.948;4.706;2023-12-20T08:54:09;7.10;99.90
24146;DHT22;12308;50.948;4.706;2023-12-20T08:56:35;7.00;99.90
24146;DHT22;12308;50.948;4.706;2023-12-20T08:59:00;7.00;99.90
24146;DHT22;12308;50.948;4.706;2023-12-20T09:01:26;7.00;99.90
24146;DHT22;12308;50.948;4.706;2023-12-20T09:03:52;7.00;99.90
24146;DHT22;12308;50.948;4.706;2023-12-20T09:06:17;7.00;99.90
24146;DHT22;12308;50.948;4.706;2023-12-20T09:08:43;6.90;99.90
24146;DHT22;12308;50.948;4.706;2023-12-20T09:11:09;6.90;99.90
24146;DHT22;12308;50.948;4.706;2023-12-20T09:13:34;7.00;99.90
24146;DHT22;12308;50.948;4.706;2023-12-20T09:16:00;7.00;99.90
24146;DHT22;12308;50.948;4.706;2023-12-20T09:18:26;7.00;99.90
24146;DHT22;12308;50.948;4.706;2023-12-20T09:20:51;7.00;99.90
24146;DHT22;12308;50.948;4.706;2023-12-20T09:23:17;7.20;99.90
24146;DHT22;12308;50.948;4.706;2023-12-20T09:25:43;7.20;99.90
24146;DHT22;12308;50.948;4.706;2023-12-20T09:28:09;7.20;99.90
24146;DHT22;12308;50.948;4.706;2023-12-20T09:30:36;7.20;99.90
24146;DHT22;12308;50.948;4.706;2023-12-20T09:33:05;7.30;99.90
24146;DHT22;12308;50.948;4.706;2023-12-20T09:35:32;7.30;99.90
24146;DHT22;12308;50.948;4.706;2023-12-20T09:37:58;7.30;99.90
24146;DHT22;12308;50.948;4.706;2023-12-20T09:40:26;7.30;99.90
24146;DHT22;12308;50.948;4.706;2023-12-20T09:43:08;7.30;99.90
24146;DHT22;12308;50.948;4.706;2023-12-20T09:45:34;7.40;99.90
24146;DHT22;12308;50.948;4.706;2023-12-20T09:48:00;7.50;99.90
24146;DHT22;12308;50.948;4.706;2023-12-20T09:50:27;7.50;99.90
24146;DHT22;12308;50.948;4.706;2023-12-20T09:52:54;7.60;99.90
24146;DHT22;12308;50.948;4.706;2023-12-20T09:55:21;7.50;99.90
24146;DHT22;12308;50.948;4.706;2023-12-20T09:57:48;7.70;99.90
24146;DHT22;12308;50.948;4.706;2023-12-20T10:00:14;7.70;99.90
24146;DHT22;12308;50.948;4.706;2023-12-20T10:03:00;7.80;99.90
24146;DHT22;12308;50.948;4.706;2023-12-20T10:05:31;7.80;99.90
24146;DHT22;12308;50.948;4.706;2023-12-20T10:07:57;7.90;99.90
24146;DHT22;12308;50.948;4.706;2023-12-20T10:10:24;7.90;99.90
24146;DHT22;12308;50.948;4.706;2023-12-20T10:13:03;7.80;99.90
24146;DHT22;12308;50.948;4.706;2023-12-20T10:15:29;7.60;99.90
24146;DHT22;12308;50.948;4.706;2023-12-20T10:17:55;7.60;99.90
24146;DHT22;12308;50.948;4.706;2023-12-20T10:20:21;7.70;99.90
24146;DHT22;12308;50.948;4.706;2023-12-20T10:22:47;7.90;99.90
24146;DHT22;12308;50.948;4.706;2023-12-20T10:25:14;8.00;99.90
24146;DHT22;12308;50.948;4.706;2023-12-20T10:27:40;8.10;99.90
24146;DHT22;12308;50.948;4.706;2023-12-20T10:30:06;8.10;99.90
24146;DHT22;12308;50.948;4.706;2023-12-20T10:32:32;8.20;99.90
24146;DHT22;12308;50.948;4.706;2023-12-20T10:34:58;8.30;99.90
24146;DHT22;12308;50.948;4.706;2023-12-20T10:37:25;8.30;99.90
24146;DHT22;12308;50.948;4.706;2023-12-20T10:39:52;8.30;99.90
24146;DHT22;12308;50.948;4.706;2023-12-20T10:42:22;8.30;99.90
24146;DHT22;12308;50.948;4.706;2023-12-20T10:44:49;8.30;99.90
24146;DHT22;12308;50.948;4.706;2023-12-20T10:47:16;8.50;99.90
24146;DHT22;12308;50.948;4.706;2023-12-20T10:49:43;8.60;99.90
24146;DHT22;12308;50.948;4.706;2023-12-20T10:52:11;8.50;99.90
24146;DHT22;12308;50.948;4.706;2023-12-20T10:54:37;8.60;99.90
24146;DHT22;12308;50.948;4.706;2023-12-20T10:57:05;8.60;99.90
24146;DHT22;12308;50.948;4.706;2023-12-20T10:59:33;8.60;99.90
24146;DHT22;12308;50.948;4.706;2023-12-20T11:01:59;8.60;99.90
24146;DHT22;12308;50.948;4.706;2023-12-20T11:07:40;8.60;99.90
24146;DHT22;12308;50.948;4.706;2023-12-20T11:10:20;8.70;99.90
24146;DHT22;12308;50.948;4.706;2023-12-20T11:12:48;8.70;99.90
24146;DHT22;12308;50.948;4.706;2023-12-20T11:15:17;8.80;99.90
24146;DHT22;12308;50.948;4.706;2023-12-20T11:17:55;8.90;99.90
24146;DHT22;12308;50.948;4.706;2023-12-20T11:20:23;8.90;99.90
24146;DHT22;12308;50.948;4.706;2023-12-20T11:22:54;8.90;99.90
24146;DHT22;12308;50.948;4.706;2023-12-20T11:25:20;8.90;99.90
24146;DHT22;12308;50.948;4.706;2023-12-20T11:28:07;9.00;99.90
24146;DHT22;12308;50.948;4.706;2023-12-20T11:30:46;9.00;99.90
24146;DHT22;12308;50.948;4.706;2023-12-20T11:33:16;8.90;99.90
24146;DHT22;12308;50.948;4.706;2023-12-20T11:35:43;8.90;99.90
24146;DHT22;12308;50.948;4.706;2023-12-20T11:38:10;8.90;99.90
24146;DHT22;12308;50.948;4.706;2023-12-20T11:40:37;8.80;99.90
24146;DHT22;12308;50.948;4.706;2023-12-20T11:43:03;8.70;99.90
24146;DHT22;12308;50.948;4.706;2023-12-20T11:45:31;8.70;99.90
24146;DHT22;12308;50.948;4.706;2023-12-20T11:47:58;8.60;99.90
24146;DHT22;12308;50.948;4.706;2023-12-20T11:50:24;8.60;99.90
24146;DHT22;12308;50.948;4.706;2023-12-20T11:52:51;8.70;99.90
24146;DHT22;12308;50.948;4.706;2023-12-20T11:55:17;8.70;99.90
24146;DHT22;12308;50.948;4.706;2023-12-20T11:57:44;8.60;99.90
24146;DHT22;12308;50.948;4.706;2023-12-20T12:00:11;8.60;99.90
24146;DHT22;12308;50.948;4.706;2023-12-20T12:02:36;8.70;99.90
24146;DHT22;12308;50.948;4.706;2023-12-20T12:05:02;8.70;99.90
24146;DHT22;12308;50.948;4.706;2023-12-20T12:07:31;8.80;99.90
24146;DHT22;12308;50.948;4.706;2023-12-20T12:09:57;8.90;99.90
24146;DHT22;12308;50.948;4.706;2023-12-20T12:12:23;8.90;99.90
24146;DHT22;12308;50.948;4.706;2023-12-20T12:14:50;8.90;99.90
24146;DHT22;12308;50.948;4.706;2023-12-20T12:17:16;8.80;99.90
24146;DHT22;12308;50.948;4.706;2023-12-20T12:19:43;8.90;99.90
24146;DHT22;12308;50.948;4.706;2023-12-20T12:22:14;8.90;99.90
24146;DHT22;12308;50.948;4.706;2023-12-20T12:24:41;8.90;99.90
24146;DHT22;12308;50.948;4.706;2023-12-20T12:27:07;9.00;99.90
24146;DHT22;12308;50.948;4.706;2023-12-20T12:29:34;9.00;99.90
24146;DHT22;12308;50.948;4.706;2023-12-20T12:32:00;8.90;99.90
24146;DHT22;12308;50.948;4.706;2023-12-20T12:34:29;8.80;99.90
24146;DHT22;12308;50.948;4.706;2023-12-20T12:36:56;8.90;99.90
24146;DHT22;12308;50.948;4.706;2023-12-20T12:39:23;9.00;99.90
24146;DHT22;12308;50.948;4.706;2023-12-20T12:41:55;8.90;99.90
24146;DHT22;12308;50.948;4.706;2023-12-20T12:44:20;9.10;99.90
24146;DHT22;12308;50.948;4.706;2023-12-20T12:46:49;9.10;99.90
24146;DHT22;12308;50.948;4.706;2023-12-20T12:49:19;9.20;99.90
24146;DHT22;12308;50.948;4.706;2023-12-20T12:51:46;9.40;99.90
24146;DHT22;12308;50.948;4.706;2023-12-20T12:54:12;9.40;99.90
24146;DHT22;12308;50.948;4.706;2023-12-20T12:56:39;9.40;99.90
24146;DHT22;12308;50.948;4.706;2023-12-20T12:59:05;9.40;99.90
24146;DHT22;12308;50.948;4.706;2023-12-20T13:01:31;9.40;99.90
24146;DHT22;12308;50.948;4.706;2023-12-20T13:03:57;9.40;99.90
24146;DHT22;12308;50.948;4.706;2023-12-20T13:06:23;9.40;99.90
24146;DHT22;12308;50.948;4.706;2023-12-20T13:08:49;9.40;99.90
24146;DHT22;12308;50.948;4.706;2023-12-20T13:11:15;9.50;99.90
24146;DHT22;12308;50.948;4.706;2023-12-20T13:13:40;9.50;99.90
24146;DHT22;12308;50.948;4.706;2023-12-20T13:16:07;9.50;99.90
24146;DHT22;12308;50.948;4.706;2023-12-20T13:18:33;9.40;99.90
24146;DHT22;12308;50.948;4.706;2023-12-20T13:20:58;9.40;99.90
24146;DHT22;12308;50.948;4.706;2023-12-20T13:23:24;9.50;99.90
24146;DHT22;12308;50.948;4.706;2023-12-20T13:25:50;9.40;99.90
24146;DHT22;12308;50.948;4.706;2023-12-20T13:28:16;9.50;99.90
24146;DHT22;12308;50.948;4.706;2023-12-20T13:30:41;9.40;99.90
24146;DHT22;12308;50.948;4.706;2023-12-20T13:33:07;9.40;99.90
24146;DHT22;12308;50.948;4.706;2023-12-20T13:35:34;9.50;99.90
24146;DHT22;12308;50.948;4.706;2023-12-20T13:38:00;9.50;99.90
24146;DHT22;12308;50.948;4.706;2023-12-20T13:40:26;9.50;99.90
24146;DHT22;12308;50.948;4.706;2023-12-20T13:42:52;9.40;99.90
24146;DHT22;12308;50.948;4.706;2023-12-20T13:45:18;9.40;99.90
24146;DHT22;12308;50.948;4.706;2023-12-20T13:47:43;9.50;99.90
24146;DHT22;12308;50.948;4.706;2023-12-20T13:50:09;9.60;99.90
24146;DHT22;12308;50.948;4.706;2023-12-20T13:52:35;9.60;99.90
24146;DHT22;12308;50.948;4.706;2023-12-20T13:55:01;9.80;99.90
24146;DHT22;12308;50.948;4.706;2023-12-20T13:57:27;9.80;99.90
24146;DHT22;12308;50.948;4.706;2023-12-20T13:59:55;9.80;99.90
24146;DHT22;12308;50.948;4.706;2023-12-20T14:02:23;9.70;99.90
24146;DHT22;12308;50.948;4.706;2023-12-20T14:04:48;9.70;99.90
24146;DHT22;12308;50.948;4.706;2023-12-20T14:07:14;9.70;99.90
24146;DHT22;12308;50.948;4.706;2023-12-20T14:09:40;9.70;99.90
24146;DHT22;12308;50.948;4.706;2023-12-20T14:12:11;9.70;99.90
24146;DHT22;12308;50.948;4.706;2023-12-20T14:14:37;9.90;99.90
24146;DHT22;12308;50.948;4.706;2023-12-20T14:17:02;9.90;99.90
24146;DHT22;12308;50.948;4.706;2023-12-20T14:19:29;9.90;99.90
24146;DHT22;12308;50.948;4.706;2023-12-20T14:21:55;9.90;99.90
24146;DHT22;12308;50.948;4.706;2023-12-20T14:24:20;9.90;99.90
24146;DHT22;12308;50.948;4.706;2023-12-20T14:26:46;9.80;99.90
24146;DHT22;12308;50.948;4.706;2023-12-20T14:29:12;9.80;99.90
24146;DHT22;12308;50.948;4.706;2023-12-20T14:31:38;9.90;99.90
24146;DHT22;12308;50.948;4.706;2023-12-20T14:34:04;9.90;99.90
24146;DHT22;12308;50.948;4.706;2023-12-20T14:36:30;10.00;99.90
24146;DHT22;12308;50.948;4.706;2023-12-20T14:38:59;10.00;99.90
24146;DHT22;12308;50.948;4.706;2023-12-20T14:41:25;10.00;99.90
24146;DHT22;12308;50.948;4.706;2023-12-20T14:43:51;9.90;99.90
24146;DHT22;12308;50.948;4.706;2023-12-20T14:46:19;10.00;99.90
24146;DHT22;12308;50.948;4.706;2023-12-20T14:48:45;10.10;99.90
24146;DHT22;12308;50.948;4.706;2023-12-20T14:51:10;10.00;99.90
24146;DHT22;12308;50.948;4.706;2023-12-20T14:53:37;10.00;99.90
24146;DHT22;12308;50.948;4.706;2023-12-20T14:56:04;10.00;99.90
24146;DHT22;12308;50.948;4.706;2023-12-20T14:58:30;10.00;99.90
24146;DHT22;12308;50.948;4.706;2023-12-20T15:00:56;10.00;99.90
24146;DHT22;12308;50.948;4.706;2023-12-20T15:03:22;10.00;99.90
24146;DHT22;12308;50.948;4.706;2023-12-20T15:05:48;10.10;99.90
24146;DHT22;12308;50.948;4.706;2023-12-20T15:08:14;10.00;99.90
24146;DHT22;12308;50.948;4.706;2023-12-20T15:10:39;10.00;99.90
24146;DHT22;12308;50.948;4.706;2023-12-20T15:13:06;10.00;99.90
24146;DHT22;12308;50.948;4.706;2023-12-20T15:15:32;10.00;99.90
24146;DHT22;12308;50.948;4.706;2023-12-20T15:17:59;9.80;99.90
24146;DHT22;12308;50.948;4.706;2023-12-20T15:20:25;10.00;99.90
24146;DHT22;12308;50.948;4.706;2023-12-20T15:22:51;10.10;99.90
24146;DHT22;12308;50.948;4.706;2023-12-20T15:25:18;9.90;99.90
24146;DHT22;12308;50.948;4.706;2023-12-20T15:27:48;9.90;99.90
24146;DHT22;12308;50.948;4.706;2023-12-20T15:30:19;9.80;99.90
24146;DHT22;12308;50.948;4.706;2023-12-20T15:32:45;9.90;99.90
24146;DHT22;12308;50.948;4.706;2023-12-20T15:35:11;9.90;99.90
24146;DHT22;12308;50.948;4.706;2023-12-20T15:37:38;9.90;99.90
24146;DHT22;12308;50.948;4.706;2023-12-20T15:40:06;9.90;99.90
24146;DHT22;12308;50.948;4.706;2023-12-20T15:42:33;9.90;99.90